Time;durP1;ratioP1;P1;durP2;ratioP2;P2;SDS_P1;SDS_P2;PMS_P1;PMS_P2;Temp;Humidity;BMP_temperature;BMP_pressure;BME280_temperature;BME280_humidity;BME280_pressure;Samples;Min_cycle;Max_cycle;Signal;HPM_P1;HPM_P2
2022/02/23 00:02:08;;;;;;;6.47;3.33;;;;;;;7.46;100.00;96735.31;4968898;28;20054;-59
2022/02/23 00:04:39;;;;;;;3.80;2.70;;;;;;;7.43;100.00;96711.09;4967610;28;20493;-58
2022/02/23 00:07:08;;;;;;;5.43;2.60;;;;;;;7.46;100.00;96729.25;4904684;28;20087;-58
2022/02/23 00:09:36;;;;;;;4.15;3.03;;;;;;;7.41;100.00;96747.16;4976852;28;20062;-58
2022/02/23 00:12:08;;;;;;;7.53;2.80;;;;;;;7.47;100.00;96739.63;4983739;28;20065;-59
2022/02/23 00:14:37;;;;;;;6.22;3.20;;;;;;;7.42;100.00;96743.56;4974859;28;20086;-56
2022/02/23 00:17:05;;;;;;;6.95;3.10;;;;;;;7.53;100.00;96738.31;4976580;28;20058;-60
2022/02/23 00:19:34;;;;;;;4.63;2.83;;;;;;;7.45;100.00;96727.59;4966870;28;20063;-58
2022/02/23 00:22:03;;;;;;;5.45;3.13;;;;;;;7.57;100.00;96729.22;4983148;28;20069;-61
2022/02/23 00:24:32;;;;;;;7.03;3.22;;;;;;;7.38;100.00;96704.44;4987656;28;20074;-58
2022/02/23 00:27:00;;;;;;;5.95;3.08;;;;;;;7.58;100.00;96716.00;4986700;28;20085;-56
2022/02/23 00:29:30;;;;;;;4.88;3.10;;;;;;;7.47;100.00;96730.94;4988271;28;20075;-59
2022/02/23 00:31:59;;;;;;;5.22;3.08;;;;;;;7.68;100.00;96736.31;4993944;28;20540;-62
2022/02/23 00:34:27;;;;;;;5.05;2.67;;;;;;;7.57;100.00;96726.59;4991174;28;20677;-58
2022/02/23 00:36:56;;;;;;;3.67;2.85;;;;;;;7.58;100.00;96718.63;4986350;28;20074;-62
2022/02/23 00:39:25;;;;;;;7.18;2.95;;;;;;;7.61;100.00;96728.06;4988152;28;20074;-60
2022/02/23 00:41:53;;;;;;;2.90;2.63;;;;;;;7.54;100.00;96730.34;4988625;28;20046;-62
2022/02/23 00:44:22;;;;;;;4.90;2.90;;;;;;;7.66;100.00;96728.53;4986391;28;20074;-64
2022/02/23 00:46:52;;;;;;;4.47;2.92;;;;;;;7.64;100.00;96729.59;4992491;28;20445;-62
2022/02/23 00:49:20;;;;;;;3.10;2.50;;;;;;;7.58;100.00;96723.88;4988094;28;20088;-60
2022/02/23 00:51:51;;;;;;;4.82;2.80;;;;;;;7.65;100.00;96724.25;4986489;28;20065;-62
2022/02/23 00:54:20;;;;;;;4.18;2.70;;;;;;;7.48;100.00;96722.94;4986944;28;20563;-60
2022/02/23 00:56:57;;;;;;;5.93;2.90;;;;;;;7.70;100.00;96727.31;4991200;28;20445;-63
2022/02/23 00:59:25;;;;;;;4.57;2.90;;;;;;;7.49;100.00;96705.38;4989454;28;20090;-61
2022/02/23 01:01:55;;;;;;;6.10;3.63;;;;;;;7.44;100.00;96731.16;4990337;28;20084;-61
2022/02/23 01:04:25;;;;;;;4.45;2.90;;;;;;;7.63;100.00;96733.19;4987369;28;20066;-60
2022/02/23 01:06:56;;;;;;;7.85;2.90;;;;;;;7.67;100.00;96731.97;4984042;28;24208;-61
2022/02/23 01:09:24;;;;;;;3.78;2.70;;;;;;;7.60;100.00;96743.00;4990589;28;20074;-58
2022/02/23 01:11:53;;;;;;;6.95;2.78;;;;;;;7.63;100.00;96741.06;4987020;28;20080;-62
2022/02/23 01:14:22;;;;;;;3.92;2.75;;;;;;;7.56;100.00;96745.94;4986023;28;20062;-61
2022/02/23 01:16:50;;;;;;;5.03;3.05;;;;;;;7.52;100.00;96742.72;4989635;28;20073;-62
2022/02/23 01:19:20;;;;;;;3.40;3.10;;;;;;;7.62;100.00;96734.97;4986763;28;20053;-59
2022/02/23 01:21:49;;;;;;;6.13;3.50;;;;;;;7.67;100.00;96738.06;4988956;28;20073;-62
2022/02/23 01:24:17;;;;;;;4.68;3.00;;;;;;;7.74;100.00;96744.53;4987483;28;20061;-59
2022/02/23 01:26:46;;;;;;;4.38;2.58;;;;;;;7.70;100.00;96744.88;5002664;28;20531;-60
2022/02/23 01:29:14;;;;;;;5.00;2.85;;;;;;;7.83;100.00;96733.28;4991692;28;20077;-60
2022/02/23 01:31:43;;;;;;;5.63;2.83;;;;;;;7.66;100.00;96722.44;4964742;28;20401;-58
2022/02/23 01:34:16;;;;;;;5.53;3.17;;;;;;;7.84;100.00;96736.75;4982853;28;20069;-63
2022/02/23 01:36:45;;;;;;;3.72;2.95;;;;;;;7.70;100.00;96727.31;4975048;28;20524;-61
2022/02/23 01:39:14;;;;;;;5.78;2.80;;;;;;;7.74;100.00;96739.28;4966411;28;21392;-61
2022/02/23 01:41:43;;;;;;;3.42;3.00;;;;;;;7.82;100.00;96730.81;4965671;28;20450;-61
2022/02/23 01:44:12;;;;;;;3.63;2.60;;;;;;;7.66;100.00;96739.03;4973994;28;20082;-61
2022/02/23 01:46:41;;;;;;;7.03;2.70;;;;;;;7.78;100.00;96750.38;4964677;28;20445;-61
2022/02/23 01:49:09;;;;;;;6.82;3.10;;;;;;;7.82;100.00;96743.94;4963963;28;20096;-60
2022/02/23 01:51:38;;;;;;;3.38;2.78;;;;;;;7.67;100.00;96724.94;4972626;28;20452;-63
2022/02/23 01:54:09;;;;;;;6.20;3.20;;;;;;;7.96;100.00;96722.66;4967685;28;20066;-62
2022/02/23 01:56:38;;;;;;;5.50;3.13;;;;;;;7.84;100.00;96736.75;4965017;28;20093;-61
2022/02/23 01:59:10;;;;;;;6.13;3.10;;;;;;;7.89;100.00;96741.66;4968516;28;20069;-61
2022/02/23 02:01:38;;;;;;;7.05;2.92;;;;;;;7.80;100.00;96714.31;4966528;28;20066;-62
2022/02/23 02:04:07;;;;;;;6.10;3.15;;;;;;;7.90;100.00;96728.38;4981081;28;20054;-62
2022/02/23 02:06:35;;;;;;;3.00;2.70;;;;;;;7.87;100.00;96740.94;4986297;28;20059;-63
2022/02/23 02:09:04;;;;;;;5.35;2.60;;;;;;;7.88;100.00;96719.81;4986009;28;20536;-62
2022/02/23 02:11:34;;;;;;;3.63;2.55;;;;;;;7.83;100.00;96722.78;4984508;28;20082;-60
2022/02/23 02:14:02;;;;;;;4.32;2.55;;;;;;;7.89;100.00;96731.16;4990024;28;20061;-62
2022/02/23 02:16:31;;;;;;;3.80;2.60;;;;;;;7.93;100.00;96743.06;4988274;28;20082;-62
2022/02/23 02:19:01;;;;;;;4.18;3.30;;;;;;;7.87;100.00;96741.75;4987457;28;20524;-63
2022/02/23 02:21:31;;;;;;;;;;;;;;;7.85;100.00;96747.16;4986002;28;20073;-62
2022/02/23 02:24:00;;;;;;;3.80;2.78;;;;;;;7.81;100.00;96735.22;4985981;28;19969;-62
2022/02/23 02:26:28;;;;;;;5.25;2.63;;;;;;;7.94;100.00;96747.38;4989650;28;20084;-62
2022/02/23 02:28:57;;;;;;;4.32;2.70;;;;;;;7.87;100.00;96743.56;4986918;28;20077;-62
2022/02/23 02:31:25;;;;;;;4.07;2.58;;;;;;;7.93;100.00;96746.53;4984672;28;20065;-63
2022/02/23 02:33:54;;;;;;;5.03;2.60;;;;;;;7.85;100.00;96749.78;4989025;28;20070;-61
2022/02/23 02:36:23;;;;;;;5.70;3.10;;;;;;;7.72;100.00;96738.56;4986580;28;20599;-60
2022/02/23 02:38:53;;;;;;;4.88;2.83;;;;;;;7.84;100.00;96750.72;4984747;28;20141;-58
2022/02/23 02:41:22;;;;;;;2.80;2.60;;;;;;;7.88;100.00;96753.09;4989464;28;20074;-61
2022/02/23 02:43:50;;;;;;;5.32;2.90;;;;;;;7.89;100.00;96752.16;4990068;28;20081;-61
2022/02/23 02:46:19;;;;;;;4.15;2.70;;;;;;;7.85;100.00;96748.94;4988520;28;20088;-63
2022/02/23 02:48:47;;;;;;;4.70;2.78;;;;;;;8.03;100.00;96757.97;4984961;28;20054;-62
2022/02/23 02:51:16;;;;;;;8.48;2.70;;;;;;;7.83;100.00;96767.41;4989235;28;20078;-62
2022/02/23 02:53:44;;;;;;;2.63;2.40;;;;;;;7.87;100.00;96765.38;4983736;28;20065;-62
2022/02/23 02:56:14;;;;;;;3.38;2.90;;;;;;;7.89;100.00;96766.13;4988581;28;20077;-61
2022/02/23 02:58:42;;;;;;;7.70;2.95;;;;;;;7.85;100.00;96751.56;4985983;28;20063;-61
2022/02/23 03:01:11;;;;;;;2.75;2.55;;;;;;;7.90;100.00;96766.94;4985032;28;20069;-62
2022/02/23 03:03:39;;;;;;;4.43;2.97;;;;;;;7.90;100.00;96770.41;4983990;28;20070;-61
2022/02/23 03:06:08;;;;;;;5.80;2.75;;;;;;;8.01;100.00;96778.25;4986733;28;20081;-61
2022/02/23 03:08:36;;;;;;;4.05;2.60;;;;;;;7.96;100.00;96776.97;4990443;28;20093;-58
2022/02/23 03:11:05;;;;;;;3.75;2.95;;;;;;;8.01;100.00;96772.19;4990649;28;20077;-61
2022/02/23 03:13:34;;;;;;;3.40;2.63;;;;;;;7.97;100.00;96782.09;4990840;28;20062;-61
2022/02/23 03:16:04;;;;;;;3.55;2.70;;;;;;;8.08;100.00;96783.88;4991116;28;20046;-62
2022/02/23 03:18:33;;;;;;;3.03;2.70;;;;;;;8.05;100.00;96790.22;4992222;28;20563;-62
2022/02/23 03:21:02;;;;;;;4.07;2.70;;;;;;;8.06;100.00;96791.06;4984150;28;20070;-61
2022/02/23 03:23:32;;;;;;;;;;;;;;;8.07;100.00;96800.59;4967814;28;20090;-62
2022/02/23 03:26:00;;;;;;;2.45;2.20;;;;;;;7.98;100.00;96798.69;4969373;28;20348;-60
2022/02/23 03:28:29;;;;;;;5.60;2.65;;;;;;;7.90;100.00;96820.28;4992221;28;20088;-61
2022/02/23 03:30:59;;;;;;;2.60;2.28;;;;;;;7.99;100.00;96830.09;4989647;28;20069;-61
2022/02/23 03:33:27;;;;;;;4.07;2.60;;;;;;;7.89;100.00;96831.75;4989475;28;20073;-63
2022/02/23 03:35:56;;;;;;;3.10;2.55;;;;;;;7.94;100.00;96849.78;4989496;28;20077;-62
2022/02/23 03:38:24;;;;;;;2.85;2.40;;;;;;;7.91;100.00;96847.38;4990506;28;20115;-62
2022/02/23 03:40:53;;;;;;;3.70;2.70;;;;;;;7.86;100.00;96871.38;4991189;28;20130;-61
2022/02/23 03:43:21;;;;;;;3.47;2.78;;;;;;;7.79;100.00;96888.56;4986960;28;20066;-61
2022/02/23 03:45:49;;;;;;;2.80;2.58;;;;;;;7.60;100.00;96904.84;4991666;28;20070;-62
2022/02/23 03:48:20;;;;;;;3.08;2.72;;;;;;;7.56;100.00;96953.28;4987445;28;20065;-63
2022/02/23 03:50:48;;;;;;;5.85;2.70;;;;;;;7.24;100.00;96974.00;4989353;28;20548;-63
2022/02/23 03:53:35;;;;;;;4.60;2.40;;;;;;;7.03;100.00;96968.53;4986289;28;20050;-61
2022/02/23 03:56:05;;;;;;;3.63;2.58;;;;;;;7.05;100.00;96979.72;4993614;28;20069;-61
2022/02/23 03:58:34;;;;;;;5.53;3.10;;;;;;;6.82;100.00;96973.53;4989263;28;20403;-62
2022/02/23 04:01:02;;;;;;;3.10;2.80;;;;;;;6.76;100.00;96989.69;4988656;28;20516;-62
2022/02/23 04:03:32;;;;;;;4.22;2.90;;;;;;;6.75;100.00;96993.25;4992228;28;20078;-61
2022/02/23 04:06:01;;;;;;;3.10;2.65;;;;;;;6.68;100.00;96998.09;4989726;28;20035;-59
2022/02/23 04:08:29;;;;;;;5.05;2.60;;;;;;;6.66;100.00;96994.72;4985941;28;20082;-55
2022/02/23 04:10:57;;;;;;;2.78;2.58;;;;;;;6.75;100.00;97003.75;4984447;28;20078;-61
2022/02/23 04:13:26;;;;;;;2.80;2.58;;;;;;;6.61;100.00;96997.66;4991414;28;20084;-60
2022/02/23 04:15:54;;;;;;;2.50;2.40;;;;;;;6.53;100.00;96999.97;4988419;28;20106;-61
2022/02/23 04:18:23;;;;;;;3.40;2.80;;;;;;;6.66;100.00;97002.59;4979430;28;20085;-60
2022/02/23 04:20:53;;;;;;;3.90;2.70;;;;;;;6.50;100.00;97013.28;4966433;28;20069;-61
2022/02/23 04:23:40;;;;;;;2.67;2.45;;;;;;;6.45;100.00;97028.50;4978895;28;20394;-61
2022/02/23 04:26:09;;;;;;;3.15;2.70;;;;;;;6.45;100.00;97033.72;4973214;28;20066;-61
2022/02/23 04:28:37;;;;;;;4.78;2.92;;;;;;;6.39;100.00;97034.16;4985281;28;20077;-61
2022/02/23 04:31:06;;;;;;;4.05;2.70;;;;;;;6.39;100.00;97040.22;4975042;28;20065;-60
2022/02/23 04:33:35;;;;;;;5.95;2.80;;;;;;;6.41;100.00;97045.38;4980542;28;20061;-62
2022/02/23 04:36:07;;;;;;;3.75;2.67;;;;;;;6.36;100.00;97048.28;4971107;28;20059;-62
2022/02/23 04:38:37;;;;;;;4.28;2.70;;;;;;;6.44;100.00;97057.44;4966881;28;20090;-62
2022/02/23 04:41:06;;;;;;;8.07;3.47;;;;;;;6.42;100.00;97060.13;4977120;28;20070;-62
2022/02/23 04:43:35;;;;;;;2.92;2.47;;;;;;;6.38;100.00;97069.16;4966359;28;20078;-62
2022/02/23 04:46:07;;;;;;;3.90;2.63;;;;;;;6.37;100.00;97068.31;4980702;28;20058;-60
2022/02/23 04:48:37;;;;;;;3.08;2.78;;;;;;;6.28;100.00;97066.31;4989248;28;20054;-62
2022/02/23 04:51:07;;;;;;;3.53;2.50;;;;;;;6.36;100.00;97068.41;4987749;28;20062;-63
2022/02/23 04:53:35;;;;;;;4.75;2.85;;;;;;;6.36;100.00;97078.88;4988645;28;20081;-62
2022/02/23 04:56:05;;;;;;;5.18;3.17;;;;;;;6.23;100.00;97075.41;4992789;28;20069;-62
2022/02/23 04:58:33;;;;;;;5.43;2.60;;;;;;;6.36;100.00;97084.94;4989086;28;20085;-61
2022/02/23 05:01:02;;;;;;;4.25;2.90;;;;;;;6.30;100.00;97090.63;4985864;28;20080;-60
2022/02/23 05:03:31;;;;;;;3.47;2.60;;;;;;;6.30;100.00;97095.88;4987422;28;20034;-63
2022/02/23 05:06:00;;;;;;;4.47;2.80;;;;;;;6.42;100.00;97096.81;4989695;28;20073;-61
2022/02/23 05:08:30;;;;;;;2.88;2.65;;;;;;;6.28;100.00;97097.72;4991582;28;20086;-62
2022/02/23 05:11:01;;;;;;;2.83;2.55;;;;;;;6.43;100.00;97106.34;4986746;28;20081;-61
2022/02/23 05:13:30;;;;;;;4.57;2.80;;;;;;;6.36;100.00;97120.78;4987794;28;20070;-60
2022/02/23 05:16:01;;;;;;;4.55;2.65;;;;;;;6.40;100.00;97120.50;4987883;28;20457;-61
2022/02/23 05:18:30;;;;;;;3.28;2.78;;;;;;;6.34;100.00;97118.28;4987016;28;20085;-63
2022/02/23 05:21:00;;;;;;;4.57;3.00;;;;;;;6.22;100.00;97124.31;4984850;28;20074;-62
2022/02/23 05:23:31;;;;;;;3.42;2.50;;;;;;;6.32;100.00;97135.03;4985801;28;20489;-63
2022/02/23 05:26:00;;;;;;;;;;;;;;;6.30;100.00;97132.53;5004283;28;20081;-62
2022/02/23 05:28:29;;;;;;;4.93;2.90;;;;;;;6.17;100.00;97136.91;5004097;28;19957;-61
2022/02/23 05:30:58;;;;;;;5.50;3.00;;;;;;;6.31;100.00;97144.69;4990063;28;20058;-62
2022/02/23 05:33:26;;;;;;;3.70;2.95;;;;;;;6.37;100.00;97152.13;4999974;28;20068;-60
2022/02/23 05:35:57;;;;;;;6.65;3.13;;;;;;;6.37;100.00;97148.69;4986370;28;20053;-61
2022/02/23 05:38:25;;;;;;;4.47;2.78;;;;;;;6.28;100.00;97165.84;4986345;28;20433;-61
2022/02/23 05:40:57;;;;;;;5.97;2.70;;;;;;;6.20;100.00;97172.53;4966932;28;20074;-62
2022/02/23 05:43:26;;;;;;;5.80;2.70;;;;;;;6.22;100.00;97181.09;4969304;28;20062;-61
2022/02/23 05:45:54;;;;;;;2.85;2.60;;;;;;;6.16;100.00;97185.81;4973488;28;20514;-61
2022/02/23 05:48:23;;;;;;;3.75;3.17;;;;;;;6.11;100.00;97205.38;4983512;28;20074;-62
2022/02/23 05:50:51;;;;;;;5.10;2.85;;;;;;;6.14;100.00;97205.19;4967332;28;20093;-63
2022/02/23 05:53:20;;;;;;;5.30;2.65;;;;;;;6.01;100.00;97205.13;4962079;28;20077;-61
2022/02/23 05:55:48;;;;;;;4.65;2.85;;;;;;;6.07;100.00;97207.34;4966154;28;20210;-62
2022/02/23 05:58:18;;;;;;;4.82;2.78;;;;;;;5.91;100.00;97212.69;4989451;28;20069;-60
2022/02/23 06:00:46;;;;;;;3.53;2.90;;;;;;;5.90;100.00;97218.84;4985544;28;20096;-61
2022/02/23 06:03:15;;;;;;;5.93;3.42;;;;;;;5.68;100.00;97221.16;4993236;28;20074;-61
2022/02/23 06:05:44;;;;;;;5.05;2.65;;;;;;;5.75;100.00;97229.44;4991151;28;20081;-55
2022/02/23 06:08:12;;;;;;;3.20;2.80;;;;;;;5.59;100.00;97242.66;4989794;28;20084;-60
2022/02/23 06:10:40;;;;;;;5.97;2.97;;;;;;;5.57;100.00;97244.50;4989506;28;20072;-62
2022/02/23 06:13:25;;;;;;;3.83;2.80;;;;;;;5.44;100.00;97241.81;5002696;28;20053;-63
2022/02/23 06:15:54;;;;;;;4.20;2.75;;;;;;;5.47;100.00;97242.47;4972748;28;20073;-61
2022/02/23 06:18:22;;;;;;;3.42;2.95;;;;;;;5.42;100.00;97254.16;4963589;28;20062;-63
2022/02/23 06:20:53;;;;;;;5.07;3.20;;;;;;;5.27;100.00;97260.31;4969447;28;20109;-62
2022/02/23 06:23:22;;;;;;;3.20;2.90;;;;;;;5.22;100.00;97257.94;4962695;28;20070;-62
2022/02/23 06:25:51;;;;;;;4.30;2.78;;;;;;;5.11;100.00;97265.59;4968332;28;20089;-63
2022/02/23 06:28:21;;;;;;;;;;;;;;;5.18;100.00;97278.22;4967490;28;20066;-61
2022/02/23 06:30:51;;;;;;;3.47;2.80;;;;;;;5.06;100.00;97272.88;4964087;28;19965;-63
2022/02/23 06:33:22;;;;;;;4.30;3.45;;;;;;;5.11;100.00;97282.13;4967273;28;20078;-63
2022/02/23 06:35:51;;;;;;;4.30;2.92;;;;;;;4.98;100.00;97286.38;4961414;28;20069;-62
2022/02/23 06:38:20;;;;;;;5.20;3.03;;;;;;;4.97;100.00;97274.25;4965962;28;20077;-61
2022/02/23 06:40:57;;;;;;;5.63;3.17;;;;;;;4.78;100.00;97279.69;4990327;28;20078;-62
2022/02/23 06:43:26;;;;;;;3.30;3.00;;;;;;;4.98;100.00;97292.47;4989856;28;20077;-63
2022/02/23 06:45:56;;;;;;;4.68;2.97;;;;;;;4.91;100.00;97298.97;4992181;28;20069;-60
2022/02/23 06:48:28;;;;;;;7.57;3.05;;;;;;;4.92;100.00;97302.41;4989961;28;20611;-61
2022/02/23 06:50:57;;;;;;;2.97;2.78;;;;;;;4.83;100.00;97306.44;4988928;28;20062;-61
2022/02/23 06:53:28;;;;;;;5.45;2.97;;;;;;;4.91;100.00;97308.59;4992835;28;20082;-59
2022/02/23 06:55:57;;;;;;;7.57;3.03;;;;;;;5.00;100.00;97311.53;5001669;28;20450;-64
2022/02/23 06:58:25;;;;;;;5.63;3.35;;;;;;;4.88;100.00;97319.22;4992584;28;20066;-61
2022/02/23 07:00:56;;;;;;;7.53;3.50;;;;;;;4.93;100.00;97307.56;4989762;28;20077;-61
2022/02/23 07:03:24;;;;;;;;;;;;;;;5.02;100.00;97323.66;4992786;28;20070;-63
2022/02/23 07:05:52;;;;;;;3.97;2.90;;;;;;;5.03;100.00;97317.50;4998076;28;19973;-60
2022/02/23 07:08:21;;;;;;;6.07;3.20;;;;;;;5.28;100.00;97328.19;4991327;28;20092;-64
2022/02/23 07:10:49;;;;;;;4.03;3.10;;;;;;;5.33;100.00;97333.97;4973276;28;20112;-63
2022/02/23 07:13:20;;;;;;;5.22;2.90;;;;;;;5.27;100.00;97330.91;4987203;28;20061;-61
2022/02/23 07:15:48;;;;;;;;;;;;;;;5.30;100.00;97344.66;4996196;28;20076;-60
2022/02/23 07:18:18;;;;;;;5.35;2.95;;;;;;;5.27;100.00;97354.47;4992504;28;20619;-63
2022/02/23 07:20:46;;;;;;;6.18;3.15;;;;;;;5.33;100.00;97362.75;5008433;28;20070;-62
2022/02/23 07:23:15;;;;;;;6.78;3.40;;;;;;;5.62;100.00;97361.06;4994907;28;20081;-60
2022/02/23 07:25:44;;;;;;;4.43;2.90;;;;;;;5.64;100.00;97368.78;4966494;28;20404;-60
2022/02/23 07:28:12;;;;;;;5.43;2.97;;;;;;;5.57;100.00;97362.25;4971966;28;20543;-63
2022/02/23 07:31:03;;;;;;;3.10;2.80;;;;;;;5.37;100.00;97377.38;4982877;28;20072;-63
2022/02/23 07:33:35;;;;;;;3.40;2.72;;;;;;;5.57;100.00;97383.19;5007099;28;20065;-61
2022/02/23 07:36:04;;;;;;;5.75;3.30;;;;;;;5.79;100.00;97374.91;4989906;28;20066;-58
2022/02/23 07:38:34;;;;;;;6.55;2.90;;;;;;;5.80;100.00;97371.34;4988016;28;20104;-64
2022/02/23 07:41:03;;;;;;;5.95;2.90;;;;;;;5.74;100.00;97374.31;4995786;28;20485;-62
2022/02/23 07:43:53;;;;;;;5.28;3.00;;;;;;;5.77;100.00;97380.22;4970716;28;21545;-61
2022/02/23 07:46:21;;;;;;;5.43;2.80;;;;;;;5.84;100.00;97385.91;4969212;28;20066;-58
2022/02/23 07:49:00;;;;;;;4.25;2.95;;;;;;;6.06;100.00;97382.88;4964725;28;20050;-62
2022/02/23 07:51:29;;;;;;;5.88;3.28;;;;;;;6.08;100.00;97394.09;4969070;28;20074;-60
2022/02/23 07:53:58;;;;;;;6.43;2.92;;;;;;;6.15;100.00;97393.63;4970484;28;20514;-62
2022/02/23 07:56:27;;;;;;;4.78;3.08;;;;;;;6.23;100.00;97395.78;4972256;28;20073;-61
2022/02/23 07:58:56;;;;;;;4.20;3.03;;;;;;;6.46;100.00;97403.97;4970087;28;20074;-60
2022/02/23 08:01:29;;;;;;;4.72;3.15;;;;;;;6.64;100.00;97402.81;4970285;28;20058;-59
2022/02/23 08:03:58;;;;;;;4.75;3.08;;;;;;;6.66;100.00;97401.78;4979923;28;20077;-60
2022/02/23 08:06:27;;;;;;;3.83;3.17;;;;;;;6.62;100.00;97407.34;4979615;28;20066;-61
2022/02/23 08:08:56;;;;;;;8.25;3.00;;;;;;;6.62;100.00;97413.41;4965871;28;20057;-58
2022/02/23 08:11:26;;;;;;;4.30;3.03;;;;;;;6.47;100.00;97417.00;4968706;28;20082;-63
2022/02/23 08:13:58;;;;;;;4.32;2.90;;;;;;;6.77;100.00;97419.44;4965354;28;20066;-62
2022/02/23 08:19:37;;;;;;;4.57;2.95;;;;;;;6.88;100.00;97413.53;4963657;28;20078;-60
2022/02/23 08:22:08;;;;;;;3.70;2.63;;;;;;;6.96;100.00;97426.16;4973518;28;20520;-62
2022/02/23 08:24:39;;;;;;;5.35;2.90;;;;;;;7.04;100.00;97422.09;4968827;28;20077;-61
2022/02/23 08:27:09;;;;;;;8.15;3.15;;;;;;;6.98;100.00;97426.88;4971173;28;20082;-63
2022/02/23 08:29:40;;;;;;;3.50;2.70;;;;;;;6.96;100.00;97419.13;4996514;28;20640;-61
2022/02/23 08:32:10;;;;;;;4.85;2.90;;;;;;;7.31;100.00;97426.50;4993509;28;20436;-61
2022/02/23 08:34:42;;;;;;;6.68;2.97;;;;;;;7.06;100.00;97424.63;4990407;28;20501;-62
2022/02/23 08:37:12;;;;;;;5.78;2.97;;;;;;;7.39;100.00;97432.06;4985588;28;20063;-61
2022/02/23 08:39:41;;;;;;;9.02;2.88;;;;;;;7.36;100.00;97435.75;4969598;28;20075;-63
2022/02/23 08:42:11;;;;;;;11.35;2.90;;;;;;;7.47;100.00;97439.47;4966705;28;20073;-61
2022/02/23 08:44:41;;;;;;;4.60;2.90;;;;;;;7.65;100.00;97438.22;4968076;28;20081;-59
2022/02/23 08:47:12;;;;;;;5.57;2.83;;;;;;;7.77;100.00;97442.66;4969111;28;20053;-60
2022/02/23 08:49:41;;;;;;;6.18;2.88;;;;;;;7.91;100.00;97439.09;4969000;28;20066;-61
2022/02/23 08:52:10;;;;;;;3.00;2.50;;;;;;;8.14;100.00;97445.41;4969247;28;20074;-62
2022/02/23 08:54:39;;;;;;;5.45;2.55;;;;;;;8.11;100.00;97450.88;4966250;28;20062;-61
2022/02/23 08:57:08;;;;;;;4.72;2.50;;;;;;;8.12;100.00;97446.44;4982916;28;20066;-63
2022/02/23 08:59:36;;;;;;;5.57;3.10;;;;;;;8.44;100.00;97455.63;4998431;28;20076;-62
2022/02/23 09:02:06;;;;;;;7.25;3.15;;;;;;;8.84;100.00;97455.44;4994483;28;20472;-63
2022/02/23 09:04:34;;;;;;;9.43;2.55;;;;;;;8.69;100.00;97456.53;4988322;28;20061;-63
2022/02/23 09:07:05;;;;;;;5.47;2.88;;;;;;;8.63;100.00;97456.97;4992787;28;20058;-61
2022/02/23 09:09:33;;;;;;;9.82;3.20;;;;;;;8.44;100.00;97450.38;4989972;28;20069;-63
2022/02/23 09:12:03;;;;;;;9.98;3.30;;;;;;;8.48;100.00;97456.25;4991095;28;20397;-65
2022/02/23 09:14:32;;;;;;;7.35;3.00;;;;;;;8.47;100.00;97451.97;4994460;28;20456;-59
2022/02/23 09:17:01;;;;;;;8.82;3.00;;;;;;;8.67;100.00;97461.03;4987445;28;20070;-61
2022/02/23 09:19:29;;;;;;;7.10;2.47;;;;;;;8.74;100.00;97464.94;5001905;28;20062;-61
2022/02/23 09:21:58;;;;;;;3.25;2.40;;;;;;;8.74;100.00;97463.16;4994651;28;20069;-60
2022/02/23 09:24:28;;;;;;;10.23;2.90;;;;;;;9.12;100.00;97454.31;4989946;28;20061;-57
2022/02/23 09:26:56;;;;;;;4.68;2.90;;;;;;;9.07;100.00;97450.31;4986114;28;20073;-61
2022/02/23 09:29:26;;;;;;;3.95;2.42;;;;;;;9.55;100.00;97460.84;4984911;28;20085;-62
2022/02/23 09:31:55;;;;;;;6.88;2.55;;;;;;;9.36;100.00;97453.47;4994406;28;20076;-60
2022/02/23 09:34:24;;;;;;;8.98;2.80;;;;;;;9.55;100.00;97456.44;4967027;28;20514;-63
2022/02/23 09:36:52;;;;;;;5.40;2.75;;;;;;;9.36;100.00;97456.09;4981345;28;20073;-59
2022/02/23 09:39:21;;;;;;;8.40;3.00;;;;;;;9.40;100.00;97452.31;4970532;28;20469;-62
2022/02/23 09:41:52;;;;;;;5.13;2.75;;;;;;;9.54;100.00;97457.38;4964350;28;20073;-61
2022/02/23 09:44:21;;;;;;;9.45;3.42;;;;;;;9.47;100.00;97451.72;4963054;28;20172;-60
2022/02/23 09:46:50;;;;;;;6.50;2.65;;;;;;;9.55;100.00;97460.84;4972730;28;20454;-62
2022/02/23 09:49:18;;;;;;;7.70;3.08;;;;;;;9.37;100.00;97452.53;4970986;28;20081;-63
2022/02/23 09:51:47;;;;;;;6.22;2.60;;;;;;;8.91;100.00;97451.44;4965030;28;20082;-60
2022/02/23 09:54:16;;;;;;;7.97;3.15;;;;;;;8.83;100.00;97458.19;4964142;28;20078;-60
2022/02/23 09:56:46;;;;;;;5.63;2.70;;;;;;;8.58;100.00;97462.56;4961125;28;20054;-60
2022/02/23 09:59:17;;;;;;;11.27;3.20;;;;;;;8.54;100.00;97468.97;4971910;28;20078;-62
2022/02/23 10:01:45;;;;;;;11.95;3.03;;;;;;;8.95;100.00;97462.59;4960998;28;20465;-64
2022/02/23 10:04:17;;;;;;;11.98;2.97;;;;;;;9.37;100.00;97461.25;4978838;28;20079;-63
2022/02/23 10:06:46;;;;;;;7.97;3.00;;;;;;;9.03;100.00;97465.50;4986752;28;20136;-59
2022/02/23 10:09:15;;;;;;;6.85;2.70;;;;;;;9.16;100.00;97463.66;4988641;28;20493;-61
2022/02/23 10:11:47;;;;;;;6.75;2.90;;;;;;;9.67;100.00;97460.78;4990321;28;20072;-60
2022/02/23 10:14:17;;;;;;;6.82;2.63;;;;;;;9.71;100.00;97456.13;4992978;28;20093;-63
2022/02/23 10:16:47;;;;;;;7.25;2.63;;;;;;;9.74;100.00;97451.47;4986039;28;21448;-61
2022/02/23 10:19:18;;;;;;;4.93;2.80;;;;;;;9.96;100.00;97452.47;4968802;28;20066;-64
2022/02/23 10:21:48;;;;;;;7.30;3.15;;;;;;;9.75;100.00;97449.69;4964933;28;20086;-64
2022/02/23 10:24:22;;;;;;;11.20;3.08;;;;;;;10.13;100.00;97451.22;4972524;28;20104;-59
2022/02/23 10:27:02;;;;;;;6.20;2.67;;;;;;;9.98;100.00;97458.50;4970463;28;20065;-63
2022/02/23 10:29:34;;;;;;;10.20;2.47;;;;;;;9.56;100.00;97452.81;4983195;28;20078;-62
2022/02/23 10:32:08;;;;;;;5.50;2.65;;;;;;;9.34;100.00;97453.59;4995790;28;20046;-63
2022/02/23 10:34:41;;;;;;;6.13;2.58;;;;;;;9.42;100.00;97461.75;4966754;28;20065;-63
2022/02/23 10:37:16;;;;;;;8.02;2.90;;;;;;;9.09;100.00;97456.34;4969986;28;20081;-62
2022/02/23 10:39:46;;;;;;;7.60;2.95;;;;;;;9.26;100.00;97459.41;4967112;28;20066;-62
2022/02/23 10:42:16;;;;;;;9.13;2.80;;;;;;;9.15;100.00;97464.63;4965551;28;20074;-62
2022/02/23 10:44:47;;;;;;;7.32;2.80;;;;;;;9.23;100.00;97459.63;4971418;28;20077;-61
2022/02/23 10:47:24;;;;;;;6.38;2.55;;;;;;;9.17;100.00;97467.13;4969134;28;20086;-64
2022/02/23 10:50:01;;;;;;;5.32;2.47;;;;;;;8.90;100.00;97470.78;4982269;28;20087;-63
2022/02/23 10:52:30;;;;;;;7.25;2.72;;;;;;;8.89;100.00;97471.75;4986521;28;20559;-62
2022/02/23 10:55:16;;;;;;;8.43;2.70;;;;;;;9.18;100.00;97467.00;4992158;28;20077;-63
2022/02/23 10:57:46;;;;;;;6.88;2.80;;;;;;;9.42;100.00;97466.19;4988918;28;20085;-63
2022/02/23 11:00:18;;;;;;;8.10;2.90;;;;;;;9.91;100.00;97465.16;4990298;28;20058;-63
2022/02/23 11:02:47;;;;;;;7.00;2.75;;;;;;;9.77;100.00;97460.09;4993182;28;20652;-60
2022/02/23 11:05:16;;;;;;;7.10;2.88;;;;;;;9.87;100.00;97455.81;4996982;28;20092;-63
2022/02/23 11:07:44;;;;;;;8.43;2.92;;;;;;;10.61;100.00;97453.66;4987084;28;20048;-62
2022/02/23 11:10:14;;;;;;;4.50;2.97;;;;;;;10.39;100.00;97451.84;4993589;28;20525;-61
2022/02/23 11:12:45;;;;;;;5.32;2.80;;;;;;;10.43;100.00;97448.03;4989828;28;20070;-63
2022/02/23 11:15:19;;;;;;;8.70;2.90;;;;;;;11.03;100.00;97435.38;4989752;28;20080;-64
2022/02/23 11:17:49;;;;;;;6.18;2.47;;;;;;;11.05;100.00;97433.47;4986043;28;20062;-58
2022/02/23 11:20:19;;;;;;;8.07;2.47;;;;;;;11.07;100.00;97426.25;4995324;28;20481;-62
2022/02/23 11:22:50;;;;;;;6.55;2.60;;;;;;;10.70;100.00;97429.19;4988747;28;20502;-61
2022/02/23 11:25:19;;;;;;;5.53;2.40;;;;;;;10.80;100.00;97424.84;4989386;28;20080;-62
2022/02/23 11:27:54;;;;;;;6.38;2.58;;;;;;;10.82;100.00;97420.31;4993655;28;20154;-63
2022/02/23 11:30:29;;;;;;;8.45;2.78;;;;;;;10.81;100.00;97413.38;4991978;28;20074;-62
2022/02/23 11:33:03;;;;;;;9.80;2.83;;;;;;;10.99;100.00;97411.03;4996615;28;20066;-63
2022/02/23 11:35:53;;;;;;;6.53;2.38;;;;;;;10.79;100.00;97411.78;4986104;28;20066;-62
2022/02/23 11:38:27;;;;;;;9.82;2.90;;;;;;;11.03;100.00;97414.28;4990637;28;20082;-61
2022/02/23 11:40:58;;;;;;;6.05;2.58;;;;;;;11.02;100.00;97413.44;4997942;28;20081;-63
2022/02/23 11:43:32;;;;;;;6.15;2.50;;;;;;;10.80;100.00;97403.75;4988804;28;20555;-62
2022/02/23 11:46:07;;;;;;;5.60;2.88;;;;;;;10.86;100.00;97399.78;4975194;28;20073;-61
2022/02/23 11:48:49;;;;;;;5.97;2.80;;;;;;;10.92;100.00;97392.22;4965239;28;20063;-62
2022/02/23 11:51:30;;;;;;;4.95;2.35;;;;;;;10.75;100.00;97392.75;4981230;28;20074;-62